Terminal Aerodrome Forecast
Issued by NWS

Home | Current Version | Previous Version | Text Only | Print | Product List | Glossary Off
Versions: 1 2 3 4 5 6 7 8 9 10 11 12 13 14 15 16 17 18 19 20 21 22 23

000
FTUS43 KMPX 201100
TAFAXN
TAF
KAXN 201135Z 2012/2112 18010KT 6SM HZ SCT100 BKN200
      TEMPO 2012/2014 4SM BR
     FM201500 19015G21KT P6SM FEW050 BKN200
     FM202300 19011KT P6SM SCT060 OVC150 PROB30 2023/2103 4SM TSRA
      OVC040CB
     FM210400 19009KT P6SM SCT080 BKN200=

USA.gov is the U.S. government's official web portal to all federal, state and local government web resources and services.